createdAt,value
2019-05-22T00:00:30.349Z,9.79
2019-05-22T00:02:57.402Z,9.77
2019-05-22T00:05:24.713Z,9.79
2019-05-22T00:07:51.761Z,9.79
2019-05-22T00:10:19.076Z,9.80
2019-05-22T00:12:47.261Z,9.79
2019-05-22T00:15:14.438Z,9.79
2019-05-22T00:17:41.498Z,9.82
2019-05-22T00:20:08.533Z,9.80
2019-05-22T00:22:35.590Z,9.79
2019-05-22T00:25:02.634Z,9.80
2019-05-22T00:27:29.984Z,9.78
2019-05-22T00:29:57.326Z,9.80
2019-05-22T00:32:24.381Z,9.78
2019-05-22T00:34:51.730Z,9.79
2019-05-22T00:37:18.853Z,9.79
2019-05-22T00:39:45.901Z,9.80
2019-05-22T00:42:13.281Z,9.81
2019-05-22T00:44:40.638Z,9.84
2019-05-22T00:47:07.688Z,9.83
2019-05-22T00:49:35.057Z,9.80
2019-05-22T00:52:02.089Z,9.80
2019-05-22T00:54:29.469Z,9.80
2019-05-22T00:56:56.526Z,9.80
2019-05-22T00:59:24.974Z,9.78
2019-05-22T01:01:53.250Z,9.78
2019-05-22T01:04:20.303Z,9.78
2019-05-22T01:06:47.387Z,9.80
2019-05-22T01:09:14.665Z,9.80
2019-05-22T01:11:42.077Z,9.77
2019-05-22T01:14:09.125Z,9.78
2019-05-22T01:16:36.478Z,9.80
2019-05-22T01:19:03.819Z,9.81
2019-05-22T01:21:31.187Z,9.80
2019-05-22T01:23:58.550Z,9.81
2019-05-22T01:26:25.589Z,9.78
2019-05-22T01:28:52.930Z,9.78
2019-05-22T01:31:19.974Z,9.78
2019-05-22T01:33:47.031Z,9.77
2019-05-22T01:36:14.076Z,9.77
2019-05-22T01:38:41.426Z,9.75
2019-05-22T01:41:08.468Z,9.76
2019-05-22T01:43:35.831Z,9.77
2019-05-22T01:46:03.129Z,9.75
2019-05-22T01:48:30.179Z,9.74
2019-05-22T01:50:57.513Z,9.73
2019-05-22T01:53:24.796Z,9.75
2019-05-22T01:55:51.918Z,9.73
2019-05-22T01:58:18.981Z,9.73
2019-05-22T02:00:46.305Z,9.71
2019-05-22T02:03:13.647Z,9.67
2019-05-22T02:05:41.024Z,9.67
2019-05-22T02:08:08.151Z,9.69
2019-05-22T02:10:35.193Z,9.68
2019-05-22T02:13:02.476Z,9.66
2019-05-22T02:15:29.528Z,9.66
2019-05-22T02:17:57.650Z,9.66
2019-05-22T02:20:25.031Z,9.65
2019-05-22T02:22:52.407Z,9.64
2019-05-22T02:25:19.752Z,9.62
2019-05-22T02:27:47.117Z,9.63
2019-05-22T02:30:14.507Z,9.59
2019-05-22T02:32:41.807Z,9.60
2019-05-22T02:35:08.864Z,9.61
2019-05-22T02:37:36.218Z,9.61
2019-05-22T02:40:03.585Z,9.63
2019-05-22T02:42:30.994Z,9.63
2019-05-22T02:44:58.084Z,9.64
2019-05-22T02:47:25.375Z,9.62
2019-05-22T02:49:52.783Z,9.65
2019-05-22T02:52:20.139Z,9.63
2019-05-22T02:54:47.218Z,9.61
2019-05-22T02:57:14.248Z,9.61
2019-05-22T02:59:41.428Z,9.62
2019-05-22T03:02:08.465Z,9.63
2019-05-22T03:04:35.516Z,9.63
2019-05-22T03:07:02.804Z,9.65
2019-05-22T03:09:29.864Z,9.65
2019-05-22T03:11:57.260Z,9.63
2019-05-22T03:14:24.300Z,9.62
2019-05-22T03:16:51.361Z,9.61
2019-05-22T03:19:18.398Z,9.60
2019-05-22T03:21:45.766Z,9.61
2019-05-22T03:24:13.113Z,9.62
2019-05-22T03:26:40.182Z,9.61
2019-05-22T03:29:07.498Z,9.61
2019-05-22T03:31:34.814Z,9.61
2019-05-22T03:34:02.106Z,9.61
2019-05-22T03:36:29.455Z,9.61
2019-05-22T03:38:56.811Z,9.61
2019-05-22T03:41:23.879Z,9.61
2019-05-22T03:43:51.191Z,9.60
2019-05-22T03:46:18.570Z,9.61
2019-05-22T03:48:45.926Z,9.61
2019-05-22T03:51:13.340Z,9.62
2019-05-22T03:53:40.358Z,9.62
2019-05-22T03:56:07.418Z,9.63
2019-05-22T03:58:34.555Z,9.63
2019-05-22T04:01:01.616Z,9.66
2019-05-22T04:03:28.936Z,9.67
2019-05-22T04:05:56.016Z,9.67
2019-05-22T04:08:23.353Z,9.67
2019-05-22T04:10:50.416Z,9.67
2019-05-22T04:13:18.612Z,9.67
2019-05-22T04:15:46.013Z,9.70
2019-05-22T04:18:13.325Z,9.73
2019-05-22T04:20:40.750Z,9.74
2019-05-22T04:23:08.160Z,9.75
2019-05-22T04:25:35.557Z,9.78
2019-05-22T04:28:04.042Z,9.77
2019-05-22T04:30:31.393Z,9.77
2019-05-22T04:32:58.751Z,9.78
2019-05-22T04:35:25.799Z,9.78
2019-05-22T04:37:52.969Z,9.78
2019-05-22T04:40:20.301Z,9.74
2019-05-22T04:42:47.347Z,9.74
2019-05-22T04:45:14.385Z,9.73
2019-05-22T04:47:41.445Z,9.76
2019-05-22T04:50:09.963Z,9.74
2019-05-22T04:52:36.988Z,9.76
2019-05-22T04:55:04.028Z,9.76
2019-05-22T04:57:31.152Z,9.78
2019-05-22T04:59:58.525Z,9.77
2019-05-22T05:02:25.866Z,9.76
2019-05-22T05:04:52.908Z,9.72
2019-05-22T05:07:19.963Z,9.72
2019-05-22T05:09:47.008Z,9.73
2019-05-22T05:12:14.224Z,9.76
2019-05-22T05:14:41.631Z,9.79
2019-05-22T05:17:08.986Z,9.85
2019-05-22T05:19:37.112Z,9.85
2019-05-22T05:22:04.500Z,9.82
2019-05-22T05:24:31.859Z,9.82
2019-05-22T05:26:58.942Z,9.83
2019-05-22T05:29:26.033Z,9.83
2019-05-22T05:31:53.408Z,9.83
2019-05-22T05:34:20.466Z,9.83
2019-05-22T05:36:47.836Z,9.85
2019-05-22T05:39:15.143Z,9.86
2019-05-22T05:41:42.185Z,9.85
2019-05-22T05:44:09.239Z,9.88
2019-05-22T05:46:36.635Z,9.87
2019-05-22T05:49:03.745Z,9.86
2019-05-22T05:51:31.022Z,9.88
2019-05-22T05:53:58.076Z,9.94
2019-05-22T05:56:25.134Z,10.01
2019-05-22T05:58:52.222Z,10.07
2019-05-22T06:01:19.527Z,10.12
2019-05-22T06:03:46.876Z,10.16
2019-05-22T06:06:13.927Z,10.20
2019-05-22T06:08:40.993Z,10.23
2019-05-22T06:11:08.034Z,10.25
2019-05-22T06:13:35.392Z,10.21
2019-05-22T06:16:02.481Z,10.20
2019-05-22T06:18:29.899Z,10.20
2019-05-22T06:21:03.789Z,10.19
2019-05-22T06:23:26.241Z,10.21
2019-05-22T06:25:53.602Z,10.21
2019-05-22T06:28:20.938Z,10.23
2019-05-22T06:30:48.256Z,10.23
2019-05-22T06:33:15.653Z,10.26
2019-05-22T06:35:42.711Z,10.25
2019-05-22T06:38:10.048Z,10.22
2019-05-22T06:40:37.457Z,10.23
2019-05-22T06:43:04.705Z,10.21
2019-05-22T06:45:31.764Z,10.15
2019-05-22T06:47:59.063Z,10.10
2019-05-22T06:50:26.418Z,10.06
2019-05-22T06:53:08.904Z,10.06
2019-05-22T06:55:22.561Z,10.00
2019-05-22T06:57:49.932Z,10.02
2019-05-22T07:00:16.992Z,10.02
2019-05-22T07:02:44.107Z,9.98
2019-05-22T07:05:11.485Z,10.01
2019-05-22T07:07:38.780Z,10.03
2019-05-22T07:10:06.187Z,10.01
2019-05-22T07:12:33.558Z,10.02
2019-05-22T07:15:00.715Z,10.02
2019-05-22T07:17:29.493Z,10.01
2019-05-22T07:19:56.829Z,10.01
2019-05-22T07:22:23.887Z,9.95
2019-05-22T07:24:51.233Z,9.97
2019-05-22T07:27:18.595Z,10.03
2019-05-22T07:29:45.941Z,10.02
2019-05-22T07:32:13.320Z,10.02
2019-05-22T07:34:40.366Z,10.05
2019-05-22T07:37:07.700Z,10.11
2019-05-22T07:39:35.059Z,10.15
2019-05-22T07:42:02.187Z,10.16
2019-05-22T07:44:29.230Z,10.20
2019-05-22T07:46:56.609Z,10.21
2019-05-22T07:49:24.829Z,10.21
2019-05-22T07:52:00.697Z,10.25
2019-05-22T07:54:20.861Z,10.29
2019-05-22T07:56:48.288Z,10.43
2019-05-22T07:59:15.334Z,10.44
2019-05-22T08:01:42.690Z,10.45
2019-05-22T08:04:10.041Z,10.43
2019-05-22T08:06:37.397Z,10.47
2019-05-22T08:09:04.449Z,10.49
2019-05-22T08:11:31.857Z,10.53
2019-05-22T08:13:59.309Z,10.60
2019-05-22T08:16:26.366Z,10.71
2019-05-22T08:18:53.410Z,10.88
2019-05-22T08:21:23.379Z,10.98
2019-05-22T08:23:49.497Z,11.08
2019-05-22T08:26:16.899Z,11.22
2019-05-22T08:28:44.210Z,11.20
2019-05-22T08:31:11.565Z,11.28
2019-05-22T08:33:38.620Z,11.07
2019-05-22T08:36:05.721Z,11.09
2019-05-22T08:38:33.021Z,11.14
2019-05-22T08:41:00.063Z,11.23
2019-05-22T08:43:27.419Z,11.31
2019-05-22T08:45:54.713Z,11.33
2019-05-22T08:48:22.126Z,11.36
2019-05-22T08:50:49.525Z,11.32
2019-05-22T08:53:16.944Z,11.31
2019-05-22T08:55:44.297Z,11.20
2019-05-22T08:58:11.372Z,11.24
2019-05-22T09:00:38.409Z,11.17
2019-05-22T09:03:05.467Z,11.08
2019-05-22T09:05:32.518Z,11.12
2019-05-22T09:07:59.952Z,11.12
2019-05-22T09:10:27.305Z,11.22
2019-05-22T09:12:54.656Z,11.26
2019-05-22T09:15:21.716Z,11.17
2019-05-22T09:17:48.847Z,11.16
2019-05-22T09:20:16.203Z,11.17
2019-05-22T09:22:43.537Z,11.14
2019-05-22T09:25:10.623Z,11.12
2019-05-22T09:27:38.088Z,11.09
2019-05-22T09:30:05.189Z,11.05
2019-05-22T09:32:32.596Z,11.00
2019-05-22T09:34:59.636Z,11.05
2019-05-22T09:37:26.697Z,11.21
2019-05-22T09:39:54.026Z,11.33
2019-05-22T09:42:21.377Z,11.37
2019-05-22T09:44:48.736Z,11.45
2019-05-22T09:47:15.798Z,11.54
2019-05-22T09:49:43.161Z,11.63
2019-05-22T09:52:10.231Z,11.52
2019-05-22T09:54:37.645Z,11.50
2019-05-22T09:57:04.976Z,11.52
2019-05-22T09:59:32.354Z,11.45
2019-05-22T10:01:59.708Z,11.53
2019-05-22T10:04:27.070Z,11.59
2019-05-22T10:06:54.193Z,11.59
2019-05-22T10:09:21.609Z,11.72
2019-05-22T10:11:49.026Z,11.68
2019-05-22T10:14:16.343Z,11.65
2019-05-22T10:16:43.741Z,11.58
2019-05-22T10:19:11.089Z,11.54
2019-05-22T10:21:38.136Z,11.53
2019-05-22T10:24:06.620Z,11.67
2019-05-22T10:26:33.669Z,11.77
2019-05-22T10:29:01.043Z,11.80
2019-05-22T10:31:29.509Z,11.73
2019-05-22T10:33:56.574Z,11.72
2019-05-22T10:36:23.617Z,11.80
2019-05-22T10:38:51.077Z,11.73
2019-05-22T10:41:18.121Z,11.60
2019-05-22T10:43:45.180Z,11.51
2019-05-22T10:46:12.797Z,11.59
2019-05-22T10:48:40.803Z,11.53
2019-05-22T10:51:08.248Z,11.52
2019-05-22T10:53:35.308Z,11.64
2019-05-22T10:56:02.890Z,11.71
2019-05-22T10:58:29.985Z,11.65
2019-05-22T11:00:57.030Z,11.57
2019-05-22T11:03:24.084Z,11.52
2019-05-22T11:06:05.585Z,11.47
2019-05-22T11:08:20.301Z,11.28
2019-05-22T11:10:47.301Z,11.17
2019-05-22T11:13:14.645Z,11.16
2019-05-22T11:15:41.997Z,11.19
2019-05-22T11:18:09.060Z,11.17
2019-05-22T11:20:36.405Z,11.09
2019-05-22T11:23:03.784Z,11.05
2019-05-22T11:25:31.136Z,10.94
2019-05-22T11:27:58.177Z,10.97
2019-05-22T11:30:25.244Z,11.03
2019-05-22T11:32:52.286Z,10.98
2019-05-22T11:35:19.347Z,10.91
2019-05-22T11:37:46.662Z,10.82
2019-05-22T11:40:13.720Z,10.81
2019-05-22T11:42:41.085Z,10.87
2019-05-22T11:45:08.124Z,10.83
2019-05-22T11:47:35.466Z,10.79
2019-05-22T11:50:02.562Z,10.79
2019-05-22T11:52:30.000Z,10.79
2019-05-22T11:54:57.324Z,10.79
2019-05-22T11:57:24.374Z,10.80
2019-05-22T11:59:51.787Z,10.81
2019-05-22T12:02:18.826Z,10.77
2019-05-22T12:04:48.681Z,10.78
2019-05-22T12:07:15.050Z,10.85
2019-05-22T12:09:42.402Z,10.83
2019-05-22T12:12:09.765Z,10.91
2019-05-22T12:14:37.072Z,11.02
2019-05-22T12:17:04.447Z,11.10
2019-05-22T12:19:31.808Z,11.07
2019-05-22T12:21:59.167Z,11.19
2019-05-22T12:24:32.448Z,11.27
2019-05-22T12:26:55.280Z,11.50
2019-05-22T12:29:23.680Z,12.04
2019-05-22T12:31:50.775Z,12.39
2019-05-22T12:34:18.259Z,12.74
2019-05-22T12:36:45.650Z,13.07
2019-05-22T12:39:12.711Z,13.14
2019-05-22T12:41:40.107Z,13.26
2019-05-22T12:44:07.508Z,13.33
2019-05-22T12:46:34.859Z,13.28
2019-05-22T12:49:01.905Z,13.05
2019-05-22T12:51:29.276Z,12.85
2019-05-22T12:53:56.324Z,12.70
2019-05-22T12:56:23.661Z,12.72
2019-05-22T12:58:51.019Z,13.08
2019-05-22T13:01:18.375Z,13.40
2019-05-22T13:03:45.417Z,13.61
2019-05-22T13:06:12.473Z,13.74
2019-05-22T13:08:39.825Z,13.77
2019-05-22T13:11:06.887Z,13.71
2019-05-22T13:13:33.930Z,13.73
2019-05-22T13:16:01.063Z,13.76
2019-05-22T13:18:28.123Z,13.80
2019-05-22T13:20:55.180Z,14.05
2019-05-22T13:23:22.220Z,14.44
2019-05-22T13:25:49.574Z,14.70
2019-05-22T13:28:17.029Z,14.83
2019-05-22T13:30:44.089Z,14.96
2019-05-22T13:33:11.139Z,15.09
2019-05-22T13:35:38.201Z,15.00
2019-05-22T13:38:05.551Z,14.88
2019-05-22T13:40:32.606Z,14.91
2019-05-22T13:42:59.932Z,15.03
2019-05-22T13:45:29.791Z,15.10
2019-05-22T13:47:56.094Z,15.29
2019-05-22T13:50:23.451Z,15.29
2019-05-22T13:52:50.808Z,15.21
2019-05-22T13:55:17.869Z,15.22
2019-05-22T13:57:46.283Z,15.24
2019-05-22T14:00:13.343Z,15.28
2019-05-22T14:02:40.405Z,15.37
2019-05-22T14:05:07.782Z,15.24
2019-05-22T14:07:35.137Z,15.35
2019-05-22T14:10:02.535Z,15.30
2019-05-22T14:12:29.992Z,15.33
2019-05-22T14:14:57.079Z,15.56
2019-05-22T14:17:24.139Z,15.55
2019-05-22T14:19:51.609Z,15.17
2019-05-22T14:22:18.944Z,15.13
2019-05-22T14:24:45.987Z,15.02
2019-05-22T14:27:13.044Z,14.97
2019-05-22T14:29:40.412Z,15.01
2019-05-22T14:32:07.482Z,15.07
2019-05-22T14:34:34.799Z,15.04
2019-05-22T14:37:02.148Z,15.16
2019-05-22T14:39:29.188Z,15.36
2019-05-22T14:41:56.553Z,15.48
2019-05-22T14:44:23.608Z,15.55
2019-05-22T14:46:50.681Z,15.54
2019-05-22T14:49:20.815Z,15.45
2019-05-22T14:51:46.769Z,15.32
2019-05-22T14:54:14.794Z,15.24
2019-05-22T14:56:41.844Z,15.09
2019-05-22T14:59:08.888Z,14.98
2019-05-22T15:01:36.213Z,15.01
2019-05-22T15:04:03.572Z,15.09
2019-05-22T15:06:30.650Z,15.14
2019-05-22T15:08:57.973Z,15.36
2019-05-22T15:11:25.328Z,15.53
2019-05-22T15:13:52.380Z,15.55
2019-05-22T15:16:19.442Z,15.69
2019-05-22T15:18:46.778Z,15.70
2019-05-22T15:21:13.835Z,15.54
2019-05-22T15:23:41.182Z,15.41
2019-05-22T15:26:08.247Z,15.30
2019-05-22T15:28:35.894Z,15.25
2019-05-22T15:31:02.958Z,15.16
2019-05-22T15:33:30.325Z,15.12
2019-05-22T15:35:57.373Z,15.01
2019-05-22T15:38:24.447Z,14.93
2019-05-22T15:41:05.061Z,14.94
2019-05-22T15:43:32.435Z,14.89
2019-05-22T15:45:59.511Z,14.83
2019-05-22T15:51:11.144Z,14.77
2019-05-22T15:53:44.125Z,14.69
2019-05-22T16:02:01.364Z,14.40
2019-05-22T16:04:29.296Z,14.42
2019-05-22T16:06:56.504Z,14.35
2019-05-22T16:09:26.897Z,14.30
2019-05-22T16:11:59.979Z,14.30
2019-05-22T16:17:27.039Z,14.45
2019-05-22T16:19:56.516Z,14.42
2019-05-22T16:22:26.906Z,14.41
2019-05-22T16:24:56.333Z,14.36
2019-05-22T16:27:23.553Z,14.32
2019-05-22T16:29:50.602Z,14.21
2019-05-22T16:32:22.835Z,14.17
2019-05-22T16:34:56.882Z,14.05
2019-05-22T16:37:26.092Z,13.97
2019-05-22T16:40:12.129Z,13.89
2019-05-22T16:45:27.065Z,13.77
2019-05-22T17:01:12.424Z,13.61
2019-05-22T17:03:44.492Z,13.70
2019-05-22T17:06:23.914Z,13.74
2019-05-22T17:08:52.469Z,13.72
2019-05-22T17:11:20.975Z,13.73
2019-05-22T17:13:52.547Z,13.73
2019-05-22T17:16:23.443Z,13.68
2019-05-22T17:18:52.689Z,13.60
2019-05-22T17:24:12.645Z,13.43
2019-05-22T17:26:43.509Z,13.33
2019-05-22T17:29:11.723Z,13.23
2019-05-22T17:31:47.234Z,13.16
2019-05-22T17:34:18.867Z,13.10
2019-05-22T17:36:57.326Z,13.03
2019-05-22T17:39:24.934Z,12.97
2019-05-22T17:41:57.258Z,12.89
2019-05-22T17:47:16.717Z,12.76
2019-05-22T17:49:45.224Z,12.67
2019-05-22T17:52:19.411Z,12.58
2019-05-22T17:54:46.888Z,12.52
2019-05-22T18:02:53.514Z,12.29
2019-05-22T18:07:57.085Z,12.15
2019-05-22T18:10:25.689Z,12.12
2019-05-22T18:13:07.999Z,12.07
2019-05-22T18:26:16.454Z,11.73
2019-05-22T18:28:43.935Z,11.67
2019-05-22T18:31:10.976Z,11.60
2019-05-22T18:36:13.607Z,11.48
2019-05-22T18:38:40.864Z,11.42
2019-05-22T18:41:26.336Z,11.34
2019-05-22T18:43:53.960Z,11.24
2019-05-22T18:49:24.661Z,11.06
2019-05-22T18:52:08.348Z,10.95
2019-05-22T18:57:17.190Z,10.78
2019-05-22T18:59:44.918Z,10.67
2019-05-22T19:02:18.276Z,10.59
2019-05-22T19:04:46.841Z,10.48
2019-05-22T19:07:24.353Z,10.38
2019-05-22T19:09:52.907Z,10.30
2019-05-22T19:15:26.993Z,10.13
2019-05-22T19:20:58.164Z,10.00
2019-05-22T19:23:41.781Z,9.93
2019-05-22T19:26:12.882Z,9.87
2019-05-22T19:28:51.217Z,9.84
2019-05-22T19:31:20.828Z,9.80
2019-05-22T19:33:58.848Z,9.79
2019-05-22T19:39:20.292Z,9.74
2019-05-22T19:54:58.193Z,9.61
2019-05-22T20:00:22.620Z,9.53
2019-05-22T20:02:50.801Z,9.50
2019-05-22T20:05:18.377Z,9.47
2019-05-22T20:07:46.064Z,9.40
2019-05-22T20:10:14.450Z,9.34
2019-05-22T20:12:41.979Z,9.25
2019-05-22T20:15:09.044Z,9.19
2019-05-22T20:17:36.369Z,9.15
2019-05-22T20:20:04.554Z,9.09
2019-05-22T20:22:32.119Z,9.04
2019-05-22T20:24:59.473Z,9.01
2019-05-22T20:27:26.580Z,8.96
2019-05-22T20:29:53.629Z,8.86
2019-05-22T20:32:20.666Z,8.76
2019-05-22T20:34:47.795Z,8.69
2019-05-22T20:37:15.123Z,8.63
2019-05-22T20:39:42.188Z,8.60
2019-05-22T20:42:09.535Z,8.63
2019-05-22T20:44:36.573Z,8.68
2019-05-22T20:47:04.604Z,8.72
2019-05-22T20:49:31.631Z,8.76
2019-05-22T20:51:58.687Z,8.79
2019-05-22T20:54:25.723Z,8.83
2019-05-22T20:56:52.779Z,8.82
2019-05-22T20:59:19.823Z,8.79
2019-05-22T21:01:47.049Z,8.77
2019-05-22T21:04:14.340Z,8.74
2019-05-22T21:06:41.408Z,8.71
2019-05-22T21:09:08.795Z,8.69
2019-05-22T21:11:35.853Z,8.66
2019-05-22T21:14:02.974Z,8.63
2019-05-22T21:16:30.028Z,8.61
2019-05-22T21:18:57.072Z,8.61
2019-05-22T21:21:24.444Z,8.63
2019-05-22T21:23:51.489Z,8.64
2019-05-22T21:26:18.852Z,8.63
2019-05-22T21:28:46.201Z,8.60
2019-05-22T21:31:13.559Z,8.57
2019-05-22T21:33:40.594Z,8.58
2019-05-22T21:36:07.647Z,8.61
2019-05-22T21:38:35.013Z,8.62
2019-05-22T21:41:02.379Z,8.61
2019-05-22T21:43:29.729Z,8.61
2019-05-22T21:45:56.773Z,8.57
2019-05-22T21:48:23.841Z,8.54
2019-05-22T21:50:50.867Z,8.52
2019-05-22T21:53:18.237Z,8.52
2019-05-22T21:55:45.802Z,8.49
2019-05-22T21:58:14.054Z,8.44
2019-05-22T22:00:41.098Z,8.40
2019-05-22T22:03:08.679Z,8.39
2019-05-22T22:05:37.163Z,8.37
2019-05-22T22:08:04.518Z,8.34
2019-05-22T22:10:31.854Z,8.32
2019-05-22T22:12:59.166Z,8.33
2019-05-22T22:15:26.289Z,8.36
2019-05-22T22:17:53.715Z,8.37
2019-05-22T22:20:20.758Z,8.34
2019-05-22T22:22:48.137Z,8.36
2019-05-22T22:25:15.183Z,8.35
2019-05-22T22:27:42.540Z,8.27
2019-05-22T22:30:09.581Z,8.26
2019-05-22T22:32:36.639Z,8.24
2019-05-22T22:35:03.970Z,8.24
2019-05-22T22:37:31.094Z,8.23
2019-05-22T22:39:58.127Z,8.25
2019-05-22T22:42:25.189Z,8.26
2019-05-22T22:44:52.227Z,8.24
2019-05-22T22:47:19.285Z,8.22
2019-05-22T22:49:46.317Z,8.17
2019-05-22T22:52:13.378Z,8.13
2019-05-22T22:54:40.412Z,8.09
2019-05-22T22:57:07.473Z,8.09
2019-05-22T22:59:34.758Z,8.07
2019-05-22T23:02:02.114Z,8.04
2019-05-22T23:04:29.176Z,7.98
2019-05-22T23:06:56.216Z,7.89
2019-05-22T23:09:23.263Z,7.81
2019-05-22T23:11:50.627Z,7.72
2019-05-22T23:14:17.686Z,7.64
2019-05-22T23:16:44.728Z,7.60
2019-05-22T23:19:11.854Z,7.57
2019-05-22T23:21:39.211Z,7.57
2019-05-22T23:24:06.569Z,7.53
2019-05-22T23:26:33.856Z,7.47
2019-05-22T23:29:00.910Z,7.43
2019-05-22T23:31:27.946Z,7.40
2019-05-22T23:33:55.297Z,7.39
2019-05-22T23:36:22.326Z,7.37
2019-05-22T23:38:49.671Z,7.35
2019-05-22T23:41:16.706Z,7.29
2019-05-22T23:43:44.073Z,7.23
2019-05-22T23:46:11.118Z,7.19
2019-05-22T23:48:38.480Z,7.14
2019-05-22T23:51:05.774Z,7.10
2019-05-22T23:53:33.092Z,7.10
2019-05-22T23:56:00.444Z,7.13
2019-05-22T23:58:27.819Z,7.13
